sensor_id;sensor_type;location;lat;lon;timestamp;pressure;altitude;pressure_sealevel;temperature;humidity
63500;BME280;49654;51.142;14.924;2024-03-23T14:37:21;98321.56;;;7.98;78.00
63500;BME280;49654;51.142;14.924;2024-03-23T14:39:49;98317.03;;;7.47;82.71
63500;BME280;49654;51.142;14.924;2024-03-23T14:42:24;98257.94;;;6.92;85.09
63500;BME280;49654;51.142;14.924;2024-03-23T14:44:57;98317.75;;;7.41;88.52
63500;BME280;49654;51.142;14.924;2024-03-23T14:47:23;98318.88;;;7.39;88.46
63500;BME280;49654;51.142;14.924;2024-03-23T14:49:50;98313.50;;;7.25;89.51
63500;BME280;49654;51.142;14.924;2024-03-23T14:52:17;98279.38;;;7.15;88.45
63500;BME280;49654;51.142;14.924;2024-03-23T14:54:46;98300.06;;;7.83;88.47
63500;BME280;49654;51.142;14.924;2024-03-23T14:57:12;98253.84;;;8.39;84.00
63500;BME280;49654;51.142;14.924;2024-03-23T14:59:39;98320.81;;;8.85;83.20
63500;BME280;49654;51.142;14.924;2024-03-23T15:02:06;98297.88;;;8.31;81.93
63500;BME280;49654;51.142;14.924;2024-03-23T15:04:33;98319.66;;;7.77;81.06
63500;BME280;49654;51.142;14.924;2024-03-23T15:07:00;98265.28;;;8.00;82.58
63500;BME280;49654;51.142;14.924;2024-03-23T15:09:27;98276.38;;;9.02;77.19
63500;BME280;49654;51.142;14.924;2024-03-23T15:11:54;98257.06;;;9.05;74.56
63500;BME280;49654;51.142;14.924;2024-03-23T15:14:23;98259.53;;;9.69;68.96
63500;BME280;49654;51.142;14.924;2024-03-23T15:16:49;98290.63;;;10.04;67.28
63500;BME280;49654;51.142;14.924;2024-03-23T15:19:16;98283.91;;;10.16;66.55
63500;BME280;49654;51.142;14.924;2024-03-23T15:21:45;98281.31;;;10.16;66.10
63500;BME280;49654;51.142;14.924;2024-03-23T15:24:12;98214.56;;;9.21;68.31
63500;BME280;49654;51.142;14.924;2024-03-23T15:26:38;98264.28;;;8.88;67.21
63500;BME280;49654;51.142;14.924;2024-03-23T15:29:07;98293.38;;;8.69;68.45
63500;BME280;49654;51.142;14.924;2024-03-23T15:31:37;98298.28;;;8.64;69.18
63500;BME280;49654;51.142;14.924;2024-03-23T15:34:04;98311.63;;;8.16;70.69
63500;BME280;49654;51.142;14.924;2024-03-23T15:36:35;98263.97;;;7.89;71.24
63500;BME280;49654;51.142;14.924;2024-03-23T15:39:03;98238.56;;;7.93;70.07
63500;BME280;49654;51.142;14.924;2024-03-23T15:41:30;98282.09;;;8.25;71.02
63500;BME280;49654;51.142;14.924;2024-03-23T15:43:56;98307.19;;;8.10;73.11
63500;BME280;49654;51.142;14.924;2024-03-23T15:46:25;98251.81;;;7.31;73.93
63500;BME280;49654;51.142;14.924;2024-03-23T15:48:51;98290.59;;;7.60;74.07
63500;BME280;49654;51.142;14.924;2024-03-23T15:51:18;98295.25;;;7.80;74.09
63500;BME280;49654;51.142;14.924;2024-03-23T15:53:43;98298.28;;;7.98;73.34
63500;BME280;49654;51.142;14.924;2024-03-23T15:56:10;98297.91;;;7.71;74.38
63500;BME280;49654;51.142;14.924;2024-03-23T15:58:36;98284.44;;;7.61;73.05
63500;BME280;49654;51.142;14.924;2024-03-23T16:01:04;98299.41;;;7.51;72.47
63500;BME280;49654;51.142;14.924;2024-03-23T16:03:32;98298.75;;;7.49;73.27
63500;BME280;49654;51.142;14.924;2024-03-23T16:06:00;98256.34;;;7.28;73.67
63500;BME280;49654;51.142;14.924;2024-03-23T16:08:27;98297.22;;;7.40;72.64
63500;BME280;49654;51.142;14.924;2024-03-23T16:10:54;98243.06;;;7.17;72.47
63500;BME280;49654;51.142;14.924;2024-03-23T16:13:20;98283.34;;;7.41;71.91
63500;BME280;49654;51.142;14.924;2024-03-23T16:15:54;98208.84;;;7.00;71.78
63500;BME280;49654;51.142;14.924;2024-03-23T16:18:20;98216.31;;;7.10;71.97
63500;BME280;49654;51.142;14.924;2024-03-23T16:20:53;98255.31;;;7.52;72.43
63500;BME280;49654;51.142;14.924;2024-03-23T16:23:19;98247.03;;;7.57;72.58
63500;BME280;49654;51.142;14.924;2024-03-23T16:25:47;98123.31;;;7.03;73.22
63500;BME280;49654;51.142;14.924;2024-03-23T16:28:24;98251.41;;;7.86;72.60
63500;BME280;49654;51.142;14.924;2024-03-23T16:30:55;98235.28;;;7.55;73.10
63500;BME280;49654;51.142;14.924;2024-03-23T16:33:21;98251.66;;;7.47;73.49
63500;BME280;49654;51.142;14.924;2024-03-23T16:35:56;98269.88;;;7.31;75.04
63500;BME280;49654;51.142;14.924;2024-03-23T16:38:22;98283.81;;;7.07;74.87
63500;BME280;49654;51.142;14.924;2024-03-23T16:40:53;98274.41;;;6.91;75.81
63500;BME280;49654;51.142;14.924;2024-03-23T16:43:20;98282.19;;;6.83;75.95
63500;BME280;49654;51.142;14.924;2024-03-23T16:45:54;98282.19;;;6.83;76.27
63500;BME280;49654;51.142;14.924;2024-03-23T16:48:21;98266.19;;;6.87;75.74
63500;BME280;49654;51.142;14.924;2024-03-23T16:50:48;98274.22;;;6.92;74.96
63500;BME280;49654;51.142;14.924;2024-03-23T16:53:17;98279.66;;;6.97;75.00
63500;BME280;49654;51.142;14.924;2024-03-23T16:56:00;98241.78;;;6.75;75.07
63500;BME280;49654;51.142;14.924;2024-03-23T16:58:29;98118.56;;;5.85;75.09
63500;BME280;49654;51.142;14.924;2024-03-23T17:00:56;98124.88;;;5.83;75.19
63500;BME280;49654;51.142;14.924;2024-03-23T17:03:26;98104.28;;;5.74;74.61
63500;BME280;49654;51.142;14.924;2024-03-23T17:06:01;98030.31;;;5.29;75.25
63500;BME280;49654;51.142;14.924;2024-03-23T17:08:36;98164.66;;;6.11;74.92
63500;BME280;49654;51.142;14.924;2024-03-23T17:11:03;98197.56;;;6.32;75.90
63500;BME280;49654;51.142;14.924;2024-03-23T17:13:36;98138.97;;;5.95;76.61
63500;BME280;49654;51.142;14.924;2024-03-23T17:16:06;98253.44;;;6.40;75.64
63500;BME280;49654;51.142;14.924;2024-03-23T17:18:33;98303.75;;;6.67;77.04
63500;BME280;49654;51.142;14.924;2024-03-23T17:20:59;98330.00;;;6.39;80.44
63500;BME280;49654;51.142;14.924;2024-03-23T17:23:27;98293.00;;;5.60;86.18
63500;BME280;49654;51.142;14.924;2024-03-23T17:25:55;98312.66;;;5.61;88.94
63500;BME280;49654;51.142;14.924;2024-03-23T17:28:22;98310.09;;;5.45;92.22
63500;BME280;49654;51.142;14.924;2024-03-23T17:30:49;98333.56;;;5.42;93.74
63500;BME280;49654;51.142;14.924;2024-03-23T17:33:16;98346.75;;;5.39;96.07
63500;BME280;49654;51.142;14.924;2024-03-23T17:35:43;98327.47;;;5.02;96.07
63500;BME280;49654;51.142;14.924;2024-03-23T17:38:09;98294.16;;;4.84;97.10
63500;BME280;49654;51.142;14.924;2024-03-23T17:40:36;98305.59;;;4.98;96.80
63500;BME280;49654;51.142;14.924;2024-03-23T17:43:04;98318.47;;;5.14;96.70
63500;BME280;49654;51.142;14.924;2024-03-23T17:45:30;98343.56;;;5.20;97.18
63500;BME280;49654;51.142;14.924;2024-03-23T17:47:56;98225.31;;;4.53;97.35
63500;BME280;49654;51.142;14.924;2024-03-23T17:50:23;98313.16;;;5.16;96.91
63500;BME280;49654;51.142;14.924;2024-03-23T17:52:49;98272.31;;;4.88;97.50
63500;BME280;49654;51.142;14.924;2024-03-23T17:55:17;98313.63;;;5.19;98.05
63500;BME280;49654;51.142;14.924;2024-03-23T17:57:43;98311.53;;;5.07;97.92
63500;BME280;49654;51.142;14.924;2024-03-23T18:00:12;98320.69;;;5.01;98.40
63500;BME280;49654;51.142;14.924;2024-03-23T18:02:40;98318.75;;;4.87;98.11
63500;BME280;49654;51.142;14.924;2024-03-23T18:05:08;98333.22;;;4.88;98.52
63500;BME280;49654;51.142;14.924;2024-03-23T18:07:34;98179.72;;;3.89;98.57
63500;BME280;49654;51.142;14.924;2024-03-23T18:10:01;98321.31;;;4.78;99.19
63500;BME280;49654;51.142;14.924;2024-03-23T18:12:27;98254.97;;;4.23;99.52
63500;BME280;49654;51.142;14.924;2024-03-23T18:14:54;98288.41;;;4.32;100.00
63500;BME280;49654;51.142;14.924;2024-03-23T18:17:24;98308.81;;;4.33;99.95
63500;BME280;49654;51.142;14.924;2024-03-23T18:19:51;98356.47;;;4.62;99.75
63500;BME280;49654;51.142;14.924;2024-03-23T18:22:17;98311.41;;;4.33;98.78
63500;BME280;49654;51.142;14.924;2024-03-23T18:24:44;98331.53;;;4.46;98.76
63500;BME280;49654;51.142;14.924;2024-03-23T18:27:10;98314.44;;;4.29;98.20
63500;BME280;49654;51.142;14.924;2024-03-23T18:29:38;98363.19;;;4.55;98.50
63500;BME280;49654;51.142;14.924;2024-03-23T18:32:05;98309.97;;;4.39;97.99
63500;BME280;49654;51.142;14.924;2024-03-23T18:34:33;98368.53;;;4.69;97.75
63500;BME280;49654;51.142;14.924;2024-03-23T18:36:59;98360.38;;;4.82;97.46
63500;BME280;49654;51.142;14.924;2024-03-23T18:39:26;98338.16;;;4.65;97.28
63500;BME280;49654;51.142;14.924;2024-03-23T18:41:53;98362.47;;;4.78;96.50
63500;BME280;49654;51.142;14.924;2024-03-23T18:44:20;98356.00;;;4.74;96.49
63500;BME280;49654;51.142;14.924;2024-03-23T18:46:47;98334.94;;;4.63;96.30
63500;BME280;49654;51.142;14.924;2024-03-23T18:49:14;98327.84;;;4.57;95.82
63500;BME280;49654;51.142;14.924;2024-03-23T18:51:41;98278.41;;;4.20;96.10
63500;BME280;49654;51.142;14.924;2024-03-23T18:54:08;98359.50;;;4.57;96.60
63500;BME280;49654;51.142;14.924;2024-03-23T18:56:34;98350.34;;;4.55;96.63
63500;BME280;49654;51.142;14.924;2024-03-23T18:59:01;98292.88;;;4.21;96.86
63500;BME280;49654;51.142;14.924;2024-03-23T19:01:27;98340.06;;;4.55;96.85
63500;BME280;49654;51.142;14.924;2024-03-23T19:03:54;98319.22;;;4.23;97.49
63500;BME280;49654;51.142;14.924;2024-03-23T19:06:20;98341.81;;;4.46;97.62
63500;BME280;49654;51.142;14.924;2024-03-23T19:08:48;98257.56;;;3.89;97.57
63500;BME280;49654;51.142;14.924;2024-03-23T19:11:17;98348.50;;;4.39;97.33
63500;BME280;49654;51.142;14.924;2024-03-23T19:13:45;98334.22;;;4.44;97.76
63500;BME280;49654;51.142;14.924;2024-03-23T19:16:11;98338.09;;;4.48;97.59
63500;BME280;49654;51.142;14.924;2024-03-23T19:18:38;98343.09;;;4.50;97.25
63500;BME280;49654;51.142;14.924;2024-03-23T19:21:04;98259.66;;;3.94;96.98
63500;BME280;49654;51.142;14.924;2024-03-23T19:23:31;98287.06;;;4.11;96.85
63500;BME280;49654;51.142;14.924;2024-03-23T19:25:59;98325.34;;;4.31;96.78
63500;BME280;49654;51.142;14.924;2024-03-23T19:28:27;98336.47;;;4.39;96.85
63500;BME280;49654;51.142;14.924;2024-03-23T19:30:54;98297.59;;;4.00;97.69
63500;BME280;49654;51.142;14.924;2024-03-23T19:33:21;98295.34;;;3.97;97.66
63500;BME280;49654;51.142;14.924;2024-03-23T19:35:54;98325.81;;;4.26;96.85
63500;BME280;49654;51.142;14.924;2024-03-23T19:38:22;98342.03;;;4.26;96.79
63500;BME280;49654;51.142;14.924;2024-03-23T19:40:52;98296.00;;;3.99;96.88
63500;BME280;49654;51.142;14.924;2024-03-23T19:43:20;98337.81;;;4.17;97.38
63500;BME280;49654;51.142;14.924;2024-03-23T19:45:46;98340.84;;;4.13;98.18
63500;BME280;49654;51.142;14.924;2024-03-23T19:48:13;98264.84;;;3.68;98.33
63500;BME280;49654;51.142;14.924;2024-03-23T19:50:39;98317.19;;;4.01;98.80
63500;BME280;49654;51.142;14.924;2024-03-23T19:53:06;98283.63;;;3.94;98.19
63500;BME280;49654;51.142;14.924;2024-03-23T19:55:33;98323.22;;;4.18;97.46
63500;BME280;49654;51.142;14.924;2024-03-23T19:58:04;98256.69;;;3.72;97.59
63500;BME280;49654;51.142;14.924;2024-03-23T20:00:32;98261.63;;;3.66;97.85
63500;BME280;49654;51.142;14.924;2024-03-23T20:03:00;98322.19;;;4.03;98.06
63500;BME280;49654;51.142;14.924;2024-03-23T20:05:30;98323.94;;;4.02;98.18
63500;BME280;49654;51.142;14.924;2024-03-23T20:07:57;98307.94;;;3.82;98.29
63500;BME280;49654;51.142;14.924;2024-03-23T20:10:23;98323.00;;;4.03;98.60
63500;BME280;49654;51.142;14.924;2024-03-23T20:12:50;98317.41;;;4.08;97.87
63500;BME280;49654;51.142;14.924;2024-03-23T20:15:16;98285.47;;;3.84;97.44
63500;BME280;49654;51.142;14.924;2024-03-23T20:17:45;98297.09;;;3.96;97.21
63500;BME280;49654;51.142;14.924;2024-03-23T20:20:13;98265.56;;;3.78;96.90
63500;BME280;49654;51.142;14.924;2024-03-23T20:22:40;98277.06;;;4.00;96.07
63500;BME280;49654;51.142;14.924;2024-03-23T20:25:07;98324.81;;;4.19;96.30
63500;BME280;49654;51.142;14.924;2024-03-23T20:27:35;98325.63;;;4.19;97.06
63500;BME280;49654;51.142;14.924;2024-03-23T20:30:01;98330.28;;;4.16;96.83
63500;BME280;49654;51.142;14.924;2024-03-23T20:32:29;98302.44;;;4.03;96.11
63500;BME280;49654;51.142;14.924;2024-03-23T20:34:57;98280.84;;;3.88;96.31
63500;BME280;49654;51.142;14.924;2024-03-23T20:37:24;98330.91;;;4.18;96.36
63500;BME280;49654;51.142;14.924;2024-03-23T20:39:50;98333.19;;;4.21;96.50
63500;BME280;49654;51.142;14.924;2024-03-23T20:42:17;98328.88;;;4.30;95.76
63500;BME280;49654;51.142;14.924;2024-03-23T20:44:43;98301.84;;;4.17;95.08
63500;BME280;49654;51.142;14.924;2024-03-23T20:47:10;98309.78;;;3.98;95.86
63500;BME280;49654;51.142;14.924;2024-03-23T20:49:36;98303.00;;;3.89;96.78
63500;BME280;49654;51.142;14.924;2024-03-23T20:52:07;98300.59;;;3.87;96.58
63500;BME280;49654;51.142;14.924;2024-03-23T21:10:02;98319.44;;;4.38;94.10
63500;BME280;49654;51.142;14.924;2024-03-23T21:12:30;98248.13;;;3.90;94.14
63500;BME280;49654;51.142;14.924;2024-03-23T21:14:56;98331.31;;;4.39;93.87
63500;BME280;49654;51.142;14.924;2024-03-23T21:17:22;98318.31;;;4.33;93.56
63500;BME280;49654;51.142;14.924;2024-03-23T21:19:49;98252.22;;;3.74;95.11
63500;BME280;49654;51.142;14.924;2024-03-23T21:22:20;98300.69;;;4.04;95.22
63500;BME280;49654;51.142;14.924;2024-03-23T21:24:48;98282.66;;;3.95;95.10
63500;BME280;49654;51.142;14.924;2024-03-23T21:27:36;98253.19;;;3.73;93.98
63500;BME280;49654;51.142;14.924;2024-03-23T21:30:14;98316.31;;;4.18;94.13
63500;BME280;49654;51.142;14.924;2024-03-23T21:32:43;98198.69;;;3.54;93.59
63500;BME280;49654;51.142;14.924;2024-03-23T21:35:12;98219.03;;;3.55;93.23
63500;BME280;49654;51.142;14.924;2024-03-23T21:37:38;98139.59;;;3.11;92.77
63500;BME280;49654;51.142;14.924;2024-03-23T21:40:21;98316.31;;;4.18;93.94
63500;BME280;49654;51.142;14.924;2024-03-23T21:43:27;98213.31;;;3.61;93.09
63500;BME280;49654;51.142;14.924;2024-03-23T21:46:11;98311.31;;;4.17;93.10
63500;BME280;49654;51.142;14.924;2024-03-23T21:49:30;98032.31;;;2.20;93.19
63500;BME280;49654;51.142;14.924;2024-03-23T21:52:06;98320.31;;;4.13;94.00
63500;BME280;49654;51.142;14.924;2024-03-23T21:55:04;98295.84;;;4.00;92.85
63500;BME280;49654;51.142;14.924;2024-03-23T22:11:26;97953.69;;;1.69;92.84
63500;BME280;49654;51.142;14.924;2024-03-23T22:14:06;97964.19;;;1.84;93.24
63500;BME280;49654;51.142;14.924;2024-03-23T22:16:34;98149.75;;;2.95;93.56
63500;BME280;49654;51.142;14.924;2024-03-23T22:25:27;98118.53;;;2.73;94.11
63500;BME280;49654;51.142;14.924;2024-03-23T22:28:19;98156.09;;;2.83;93.65
63500;BME280;49654;51.142;14.924;2024-03-23T22:31:06;98156.13;;;2.91;93.38
63500;BME280;49654;51.142;14.924;2024-03-23T22:37:29;97956.88;;;1.71;93.67
63500;BME280;49654;51.142;14.924;2024-03-23T22:40:31;98274.69;;;3.81;93.32
63500;BME280;49654;51.142;14.924;2024-03-23T22:43:41;97995.50;;;1.78;94.66
63500;BME280;49654;51.142;14.924;2024-03-23T22:46:18;98147.75;;;2.81;95.65
63500;BME280;49654;51.142;14.924;2024-03-23T22:49:12;98161.81;;;2.76;95.80
63500;BME280;49654;51.142;14.924;2024-03-23T22:55:18;98264.03;;;3.15;98.36
63500;BME280;49654;51.142;14.924;2024-03-23T22:57:58;97959.81;;;1.22;98.23
63500;BME280;49654;51.142;14.924;2024-03-23T23:01:04;97947.03;;;1.22;97.10
63500;BME280;49654;51.142;14.924;2024-03-23T23:03:57;98178.09;;;2.67;96.34
63500;BME280;49654;51.142;14.924;2024-03-23T23:09:54;98164.59;;;2.65;96.63
63500;BME280;49654;51.142;14.924;2024-03-23T23:13:58;98081.69;;;2.31;96.48
63500;BME280;49654;51.142;14.924;2024-03-23T23:26:51;98250.06;;;3.96;91.76
63500;BME280;49654;51.142;14.924;2024-03-23T23:29:28;98241.53;;;3.87;91.34
63500;BME280;49654;51.142;14.924;2024-03-23T23:32:26;98137.19;;;3.44;90.96
63500;BME280;49654;51.142;14.924;2024-03-23T23:35:14;98257.88;;;4.20;91.11
63500;BME280;49654;51.142;14.924;2024-03-23T23:40:59;98127.28;;;3.49;88.88
63500;BME280;49654;51.142;14.924;2024-03-23T23:43:26;98202.53;;;3.92;89.07
63500;BME280;49654;51.142;14.924;2024-03-23T23:45:53;98167.75;;;3.63;89.72
63500;BME280;49654;51.142;14.924;2024-03-23T23:48:20;98233.50;;;3.90;90.11
63500;BME280;49654;51.142;14.924;2024-03-23T23:50:48;98240.50;;;3.80;90.90
63500;BME280;49654;51.142;14.924;2024-03-23T23:53:14;98215.56;;;3.56;91.10
63500;BME280;49654;51.142;14.924;2024-03-23T23:55:43;98218.31;;;3.37;91.95
63500;BME280;49654;51.142;14.924;2024-03-23T23:58:09;98250.75;;;3.46;92.18
